sensor_id;sensor_type;location;lat;lon;timestamp;temperature;humidity
64654;DHT22;51065;48.884;12.598;2022-09-09T00:00:33;13.60;99.90
64654;DHT22;51065;48.884;12.598;2022-09-09T00:08:43;13.50;99.90
64654;DHT22;51065;48.884;12.598;2022-09-09T00:11:12;13.70;99.90
64654;DHT22;51065;48.884;12.598;2022-09-09T00:13:52;13.80;99.90
64654;DHT22;51065;48.884;12.598;2022-09-09T00:16:19;13.80;99.90
64654;DHT22;51065;48.884;12.598;2022-09-09T00:19:05;13.80;99.90
64654;DHT22;51065;48.884;12.598;2022-09-09T00:21:42;13.70;99.90
64654;DHT22;51065;48.884;12.598;2022-09-09T00:24:32;13.50;99.90
64654;DHT22;51065;48.884;12.598;2022-09-09T00:27:11;13.30;99.90
64654;DHT22;51065;48.884;12.598;2022-09-09T00:29:41;13.30;99.90
64654;DHT22;51065;48.884;12.598;2022-09-09T00:32:15;13.30;99.90
64654;DHT22;51065;48.884;12.598;2022-09-09T00:35:51;13.20;99.90
64654;DHT22;51065;48.884;12.598;2022-09-09T00:37:55;13.20;99.90
64654;DHT22;51065;48.884;12.598;2022-09-09T00:40:35;13.10;99.90
64654;DHT22;51065;48.884;12.598;2022-09-09T00:54:55;12.80;99.90
64654;DHT22;51065;48.884;12.598;2022-09-09T00:57:30;12.80;99.90
64654;DHT22;51065;48.884;12.598;2022-09-09T01:05:13;12.90;99.90
64654;DHT22;51065;48.884;12.598;2022-09-09T01:07:47;12.90;99.90
64654;DHT22;51065;48.884;12.598;2022-09-09T01:10:34;12.80;99.90
64654;DHT22;51065;48.884;12.598;2022-09-09T01:13:05;12.80;99.90
64654;DHT22;51065;48.884;12.598;2022-09-09T01:15:38;12.80;99.90
64654;DHT22;51065;48.884;12.598;2022-09-09T01:18:10;12.90;99.90
64654;DHT22;51065;48.884;12.598;2022-09-09T01:20:59;12.80;99.90
64654;DHT22;51065;48.884;12.598;2022-09-09T01:26:41;12.60;99.90
64654;DHT22;51065;48.884;12.598;2022-09-09T01:29:11;12.60;99.90
64654;DHT22;51065;48.884;12.598;2022-09-09T01:31:40;12.60;99.90
64654;DHT22;51065;48.884;12.598;2022-09-09T01:34:14;12.60;99.90
64654;DHT22;51065;48.884;12.598;2022-09-09T01:36:49;12.50;99.90
64654;DHT22;51065;48.884;12.598;2022-09-09T01:39:17;12.50;99.90
64654;DHT22;51065;48.884;12.598;2022-09-09T01:41:43;12.50;99.90
64654;DHT22;51065;48.884;12.598;2022-09-09T01:44:10;12.40;99.90
64654;DHT22;51065;48.884;12.598;2022-09-09T01:46:36;12.40;99.90
64654;DHT22;51065;48.884;12.598;2022-09-09T01:49:04;12.50;99.90
64654;DHT22;51065;48.884;12.598;2022-09-09T01:51:30;12.50;99.90
64654;DHT22;51065;48.884;12.598;2022-09-09T01:53:56;12.50;99.90
64654;DHT22;51065;48.884;12.598;2022-09-09T01:56:35;12.50;99.90
64654;DHT22;51065;48.884;12.598;2022-09-09T02:02:03;12.40;99.90
64654;DHT22;51065;48.884;12.598;2022-09-09T02:04:49;12.50;99.90
64654;DHT22;51065;48.884;12.598;2022-09-09T02:07:48;12.60;99.90
64654;DHT22;51065;48.884;12.598;2022-09-09T02:12:43;12.70;99.90
64654;DHT22;51065;48.884;12.598;2022-09-09T02:15:18;12.70;99.90
64654;DHT22;51065;48.884;12.598;2022-09-09T02:17:49;12.60;99.90
64654;DHT22;51065;48.884;12.598;2022-09-09T02:20:18;12.60;99.90
64654;DHT22;51065;48.884;12.598;2022-09-09T02:22:46;12.70;99.90
64654;DHT22;51065;48.884;12.598;2022-09-09T02:25:18;12.70;99.90
64654;DHT22;51065;48.884;12.598;2022-09-09T02:27:45;12.70;99.90
64654;DHT22;51065;48.884;12.598;2022-09-09T02:30:13;12.70;99.90
64654;DHT22;51065;48.884;12.598;2022-09-09T02:32:39;12.60;99.90
64654;DHT22;51065;48.884;12.598;2022-09-09T02:35:09;12.60;99.90
64654;DHT22;51065;48.884;12.598;2022-09-09T02:37:38;12.60;99.90
64654;DHT22;51065;48.884;12.598;2022-09-09T02:40:09;12.60;99.90
64654;DHT22;51065;48.884;12.598;2022-09-09T02:42:54;12.60;99.90
64654;DHT22;51065;48.884;12.598;2022-09-09T02:45:24;12.60;99.90
64654;DHT22;51065;48.884;12.598;2022-09-09T02:50:34;12.60;99.90
64654;DHT22;51065;48.884;12.598;2022-09-09T02:55:41;12.60;99.90
64654;DHT22;51065;48.884;12.598;2022-09-09T02:58:10;12.60;99.90
64654;DHT22;51065;48.884;12.598;2022-09-09T03:00:39;12.60;99.90
64654;DHT22;51065;48.884;12.598;2022-09-09T03:03:08;12.50;99.90
64654;DHT22;51065;48.884;12.598;2022-09-09T03:05:35;12.50;99.90
64654;DHT22;51065;48.884;12.598;2022-09-09T03:08:01;12.50;99.90
64654;DHT22;51065;48.884;12.598;2022-09-09T03:10:27;12.50;99.90
64654;DHT22;51065;48.884;12.598;2022-09-09T03:12:53;12.40;99.90
64654;DHT22;51065;48.884;12.598;2022-09-09T03:15:20;12.40;99.90
64654;DHT22;51065;48.884;12.598;2022-09-09T03:17:46;12.40;99.90
64654;DHT22;51065;48.884;12.598;2022-09-09T03:20:12;12.40;99.90
64654;DHT22;51065;48.884;12.598;2022-09-09T03:22:38;12.50;99.90
64654;DHT22;51065;48.884;12.598;2022-09-09T03:25:04;12.50;99.90
64654;DHT22;51065;48.884;12.598;2022-09-09T03:27:30;12.60;99.90
64654;DHT22;51065;48.884;12.598;2022-09-09T03:29:55;12.60;99.90
64654;DHT22;51065;48.884;12.598;2022-09-09T03:32:21;12.60;99.90
64654;DHT22;51065;48.884;12.598;2022-09-09T03:34:48;12.50;99.90
64654;DHT22;51065;48.884;12.598;2022-09-09T03:37:15;12.60;99.90
64654;DHT22;51065;48.884;12.598;2022-09-09T03:39:43;12.50;99.90
64654;DHT22;51065;48.884;12.598;2022-09-09T03:42:08;12.50;99.90
64654;DHT22;51065;48.884;12.598;2022-09-09T03:44:34;12.50;99.90
64654;DHT22;51065;48.884;12.598;2022-09-09T03:46:59;12.50;99.90
64654;DHT22;51065;48.884;12.598;2022-09-09T03:49:26;12.40;99.90
64654;DHT22;51065;48.884;12.598;2022-09-09T03:51:55;12.30;99.90
64654;DHT22;51065;48.884;12.598;2022-09-09T03:54:22;12.30;99.90
64654;DHT22;51065;48.884;12.598;2022-09-09T03:56:48;12.30;99.90
64654;DHT22;51065;48.884;12.598;2022-09-09T03:59:13;12.30;99.90
64654;DHT22;51065;48.884;12.598;2022-09-09T04:01:39;12.40;99.90
64654;DHT22;51065;48.884;12.598;2022-09-09T04:04:05;12.40;99.90
64654;DHT22;51065;48.884;12.598;2022-09-09T04:06:31;12.40;99.90
64654;DHT22;51065;48.884;12.598;2022-09-09T04:08:56;12.30;99.90
64654;DHT22;51065;48.884;12.598;2022-09-09T04:11:22;12.30;99.90
64654;DHT22;51065;48.884;12.598;2022-09-09T04:13:48;12.20;99.90
64654;DHT22;51065;48.884;12.598;2022-09-09T04:16:15;12.20;99.90
64654;DHT22;51065;48.884;12.598;2022-09-09T04:18:41;12.20;99.90
64654;DHT22;51065;48.884;12.598;2022-09-09T04:21:08;12.20;99.90
64654;DHT22;51065;48.884;12.598;2022-09-09T04:23:33;12.20;99.90
64654;DHT22;51065;48.884;12.598;2022-09-09T04:26:01;12.20;99.90
64654;DHT22;51065;48.884;12.598;2022-09-09T04:28:29;12.20;99.90
64654;DHT22;51065;48.884;12.598;2022-09-09T04:30:55;12.10;99.90
64654;DHT22;51065;48.884;12.598;2022-09-09T04:33:23;12.20;99.90
64654;DHT22;51065;48.884;12.598;2022-09-09T04:35:52;12.10;99.90
64654;DHT22;51065;48.884;12.598;2022-09-09T04:38:19;12.10;99.90
64654;DHT22;51065;48.884;12.598;2022-09-09T04:40:49;12.00;99.90
64654;DHT22;51065;48.884;12.598;2022-09-09T04:43:17;12.00;99.90
64654;DHT22;51065;48.884;12.598;2022-09-09T04:45:46;12.10;99.90
64654;DHT22;51065;48.884;12.598;2022-09-09T04:48:11;12.00;99.90
64654;DHT22;51065;48.884;12.598;2022-09-09T04:50:37;12.10;99.90
64654;DHT22;51065;48.884;12.598;2022-09-09T04:53:03;12.10;99.90
64654;DHT22;51065;48.884;12.598;2022-09-09T04:55:30;12.10;99.90
64654;DHT22;51065;48.884;12.598;2022-09-09T04:57:56;12.10;99.90
64654;DHT22;51065;48.884;12.598;2022-09-09T05:00:23;12.10;99.90
64654;DHT22;51065;48.884;12.598;2022-09-09T05:02:49;12.00;99.90
64654;DHT22;51065;48.884;12.598;2022-09-09T05:05:14;12.00;99.90
64654;DHT22;51065;48.884;12.598;2022-09-09T05:07:40;12.00;99.90
64654;DHT22;51065;48.884;12.598;2022-09-09T05:10:07;12.00;99.90
64654;DHT22;51065;48.884;12.598;2022-09-09T05:12:33;12.00;99.90
64654;DHT22;51065;48.884;12.598;2022-09-09T05:14:58;12.00;99.90
64654;DHT22;51065;48.884;12.598;2022-09-09T05:17:24;11.90;99.90
64654;DHT22;51065;48.884;12.598;2022-09-09T05:19:49;12.00;99.90
64654;DHT22;51065;48.884;12.598;2022-09-09T05:22:19;12.00;99.90
64654;DHT22;51065;48.884;12.598;2022-09-09T05:24:45;12.00;99.90
64654;DHT22;51065;48.884;12.598;2022-09-09T05:27:11;12.10;99.90
64654;DHT22;51065;48.884;12.598;2022-09-09T05:29:37;12.30;99.90
64654;DHT22;51065;48.884;12.598;2022-09-09T05:32:04;12.40;99.90
64654;DHT22;51065;48.884;12.598;2022-09-09T05:34:29;12.60;99.90
64654;DHT22;51065;48.884;12.598;2022-09-09T05:36:55;12.80;99.90
64654;DHT22;51065;48.884;12.598;2022-09-09T05:39:21;12.80;99.90
64654;DHT22;51065;48.884;12.598;2022-09-09T05:41:46;12.70;99.90
64654;DHT22;51065;48.884;12.598;2022-09-09T05:44:12;12.50;99.90
64654;DHT22;51065;48.884;12.598;2022-09-09T05:46:38;12.50;99.90
64654;DHT22;51065;48.884;12.598;2022-09-09T05:49:04;12.50;99.90
64654;DHT22;51065;48.884;12.598;2022-09-09T05:51:31;12.40;99.90
64654;DHT22;51065;48.884;12.598;2022-09-09T05:53:57;12.30;99.90
64654;DHT22;51065;48.884;12.598;2022-09-09T05:56:27;12.30;99.90
64654;DHT22;51065;48.884;12.598;2022-09-09T05:58:53;12.40;99.90
64654;DHT22;51065;48.884;12.598;2022-09-09T06:01:23;12.40;99.90
64654;DHT22;51065;48.884;12.598;2022-09-09T06:03:50;12.50;99.90
64654;DHT22;51065;48.884;12.598;2022-09-09T06:06:21;12.50;99.90
64654;DHT22;51065;48.884;12.598;2022-09-09T06:08:47;12.70;99.90
64654;DHT22;51065;48.884;12.598;2022-09-09T06:11:16;12.80;99.90
64654;DHT22;51065;48.884;12.598;2022-09-09T06:13:43;12.80;99.90
64654;DHT22;51065;48.884;12.598;2022-09-09T06:16:14;12.90;99.90
64654;DHT22;51065;48.884;12.598;2022-09-09T06:18:40;13.00;99.90
64654;DHT22;51065;48.884;12.598;2022-09-09T06:21:11;13.10;99.90
64654;DHT22;51065;48.884;12.598;2022-09-09T06:23:40;13.30;99.90
64654;DHT22;51065;48.884;12.598;2022-09-09T06:26:18;13.90;99.90
64654;DHT22;51065;48.884;12.598;2022-09-09T06:28:48;14.50;99.90
64654;DHT22;51065;48.884;12.598;2022-09-09T06:31:16;15.00;99.90
64654;DHT22;51065;48.884;12.598;2022-09-09T06:33:43;15.50;99.90
64654;DHT22;51065;48.884;12.598;2022-09-09T06:36:29;15.80;99.90
64654;DHT22;51065;48.884;12.598;2022-09-09T06:38:55;16.10;99.90
64654;DHT22;51065;48.884;12.598;2022-09-09T06:41:22;16.50;99.90
64654;DHT22;51065;48.884;12.598;2022-09-09T06:43:49;16.70;99.90
64654;DHT22;51065;48.884;12.598;2022-09-09T06:46:19;17.00;99.90
64654;DHT22;51065;48.884;12.598;2022-09-09T06:48:45;17.80;99.90
64654;DHT22;51065;48.884;12.598;2022-09-09T06:51:18;17.70;99.90
64654;DHT22;51065;48.884;12.598;2022-09-09T06:53:47;17.00;99.90
64654;DHT22;51065;48.884;12.598;2022-09-09T06:56:20;16.60;99.90
64654;DHT22;51065;48.884;12.598;2022-09-09T06:58:49;16.00;99.90
64654;DHT22;51065;48.884;12.598;2022-09-09T07:01:20;15.60;99.90
64654;DHT22;51065;48.884;12.598;2022-09-09T07:03:50;15.30;99.90
64654;DHT22;51065;48.884;12.598;2022-09-09T07:06:22;15.50;99.90
64654;DHT22;51065;48.884;12.598;2022-09-09T07:08:50;15.80;99.90
64654;DHT22;51065;48.884;12.598;2022-09-09T07:11:16;15.90;99.90
64654;DHT22;51065;48.884;12.598;2022-09-09T07:13:41;15.80;99.90
64654;DHT22;51065;48.884;12.598;2022-09-09T07:16:10;15.80;99.90
64654;DHT22;51065;48.884;12.598;2022-09-09T07:18:36;15.90;99.90
64654;DHT22;51065;48.884;12.598;2022-09-09T07:21:03;15.70;99.90
64654;DHT22;51065;48.884;12.598;2022-09-09T07:23:29;15.50;99.90
64654;DHT22;51065;48.884;12.598;2022-09-09T07:25:56;15.30;99.90
64654;DHT22;51065;48.884;12.598;2022-09-09T07:28:23;15.00;99.90
64654;DHT22;51065;48.884;12.598;2022-09-09T07:31:16;14.90;99.90
64654;DHT22;51065;48.884;12.598;2022-09-09T07:33:43;14.70;99.90
64654;DHT22;51065;48.884;12.598;2022-09-09T07:36:20;14.60;99.90
64654;DHT22;51065;48.884;12.598;2022-09-09T07:38:57;14.60;99.90
64654;DHT22;51065;48.884;12.598;2022-09-09T07:41:27;14.70;99.90
64654;DHT22;51065;48.884;12.598;2022-09-09T07:43:54;15.10;99.90
64654;DHT22;51065;48.884;12.598;2022-09-09T07:46:22;15.80;99.90
64654;DHT22;51065;48.884;12.598;2022-09-09T07:48:50;16.20;99.90
64654;DHT22;51065;48.884;12.598;2022-09-09T07:51:19;16.30;99.90
64654;DHT22;51065;48.884;12.598;2022-09-09T07:53:51;16.80;99.90
64654;DHT22;51065;48.884;12.598;2022-09-09T07:56:18;17.20;99.90
64654;DHT22;51065;48.884;12.598;2022-09-09T07:58:48;17.40;99.90
64654;DHT22;51065;48.884;12.598;2022-09-09T08:01:17;17.40;99.90
64654;DHT22;51065;48.884;12.598;2022-09-09T08:03:46;17.00;99.90
64654;DHT22;51065;48.884;12.598;2022-09-09T08:06:13;16.60;99.90
64654;DHT22;51065;48.884;12.598;2022-09-09T08:08:39;16.60;99.90
64654;DHT22;51065;48.884;12.598;2022-09-09T08:11:11;17.20;99.90
64654;DHT22;51065;48.884;12.598;2022-09-09T08:13:38;17.70;99.90
64654;DHT22;51065;48.884;12.598;2022-09-09T08:16:09;17.60;99.90
64654;DHT22;51065;48.884;12.598;2022-09-09T08:18:35;17.40;99.90
64654;DHT22;51065;48.884;12.598;2022-09-09T08:21:17;17.20;99.90
64654;DHT22;51065;48.884;12.598;2022-09-09T08:23:45;16.90;99.90
64654;DHT22;51065;48.884;12.598;2022-09-09T08:26:31;16.90;99.90
64654;DHT22;51065;48.884;12.598;2022-09-09T08:28:59;16.90;99.90
64654;DHT22;51065;48.884;12.598;2022-09-09T08:31:39;16.90;99.90
64654;DHT22;51065;48.884;12.598;2022-09-09T08:34:05;16.80;99.90
64654;DHT22;51065;48.884;12.598;2022-09-09T08:36:36;16.80;99.90
64654;DHT22;51065;48.884;12.598;2022-09-09T08:39:02;16.80;99.90
64654;DHT22;51065;48.884;12.598;2022-09-09T08:41:52;17.00;99.90
64654;DHT22;51065;48.884;12.598;2022-09-09T08:55:35;17.60;99.90
64654;DHT22;51065;48.884;12.598;2022-09-09T08:58:26;17.50;99.90
64654;DHT22;51065;48.884;12.598;2022-09-09T09:11:47;17.40;99.90
64654;DHT22;51065;48.884;12.598;2022-09-09T09:14:18;17.20;99.90
64654;DHT22;51065;48.884;12.598;2022-09-09T09:17:03;17.10;99.90
64654;DHT22;51065;48.884;12.598;2022-09-09T09:19:31;17.00;99.90
64654;DHT22;51065;48.884;12.598;2022-09-09T09:22:16;17.00;99.90
64654;DHT22;51065;48.884;12.598;2022-09-09T09:27:25;16.80;99.90
64654;DHT22;51065;48.884;12.598;2022-09-09T09:29:55;16.90;99.90
64654;DHT22;51065;48.884;12.598;2022-09-09T09:32:22;16.80;99.90
64654;DHT22;51065;48.884;12.598;2022-09-09T09:34:55;16.80;99.90
64654;DHT22;51065;48.884;12.598;2022-09-09T09:37:29;16.90;99.90
64654;DHT22;51065;48.884;12.598;2022-09-09T09:39:55;16.80;99.90
64654;DHT22;51065;48.884;12.598;2022-09-09T09:42:21;16.80;99.90
64654;DHT22;51065;48.884;12.598;2022-09-09T09:44:47;16.90;99.90
64654;DHT22;51065;48.884;12.598;2022-09-09T09:47:15;16.90;99.90
64654;DHT22;51065;48.884;12.598;2022-09-09T09:49:55;16.90;99.90
64654;DHT22;51065;48.884;12.598;2022-09-09T09:52:31;16.80;99.90
64654;DHT22;51065;48.884;12.598;2022-09-09T09:55:03;16.80;99.90
64654;DHT22;51065;48.884;12.598;2022-09-09T09:57:31;16.80;99.90
64654;DHT22;51065;48.884;12.598;2022-09-09T10:00:15;16.80;99.90
64654;DHT22;51065;48.884;12.598;2022-09-09T10:02:43;16.70;99.90
64654;DHT22;51065;48.884;12.598;2022-09-09T10:05:36;16.60;99.90
64654;DHT22;51065;48.884;12.598;2022-09-09T10:10:46;16.30;99.90
64654;DHT22;51065;48.884;12.598;2022-09-09T10:13:20;16.20;99.90
64654;DHT22;51065;48.884;12.598;2022-09-09T10:16:17;16.10;99.90
64654;DHT22;51065;48.884;12.598;2022-09-09T10:19:04;16.00;99.90
64654;DHT22;51065;48.884;12.598;2022-09-09T10:27:09;15.90;99.90
64654;DHT22;51065;48.884;12.598;2022-09-09T10:32:52;15.90;99.90
64654;DHT22;51065;48.884;12.598;2022-09-09T10:38:17;15.90;99.90
64654;DHT22;51065;48.884;12.598;2022-09-09T10:48:45;16.00;99.90
64654;DHT22;51065;48.884;12.598;2022-09-09T10:57:24;15.90;99.90
64654;DHT22;51065;48.884;12.598;2022-09-09T10:59:53;15.90;99.90
64654;DHT22;51065;48.884;12.598;2022-09-09T11:02:30;15.90;99.90
64654;DHT22;51065;48.884;12.598;2022-09-09T11:05:08;16.00;99.90
64654;DHT22;51065;48.884;12.598;2022-09-09T11:07:41;16.00;99.90
64654;DHT22;51065;48.884;12.598;2022-09-09T11:10:28;16.20;99.90
64654;DHT22;51065;48.884;12.598;2022-09-09T11:13:01;16.30;99.90
64654;DHT22;51065;48.884;12.598;2022-09-09T11:15:58;16.40;99.90
64654;DHT22;51065;48.884;12.598;2022-09-09T11:18:28;16.40;99.90
64654;DHT22;51065;48.884;12.598;2022-09-09T11:20:59;16.50;99.90
64654;DHT22;51065;48.884;12.598;2022-09-09T11:23:53;16.70;99.90
64654;DHT22;51065;48.884;12.598;2022-09-09T11:26:37;16.90;99.90
64654;DHT22;51065;48.884;12.598;2022-09-09T11:34:53;17.40;99.90
64654;DHT22;51065;48.884;12.598;2022-09-09T11:40:23;17.20;99.90
64654;DHT22;51065;48.884;12.598;2022-09-09T11:45:52;17.40;99.90
64654;DHT22;51065;48.884;12.598;2022-09-09T11:48:28;17.80;99.90
64654;DHT22;51065;48.884;12.598;2022-09-09T11:51:06;18.20;99.90
64654;DHT22;51065;48.884;12.598;2022-09-09T11:53:34;18.50;99.90
64654;DHT22;51065;48.884;12.598;2022-09-09T11:56:06;19.00;99.90
64654;DHT22;51065;48.884;12.598;2022-09-09T11:58:37;19.40;99.90
64654;DHT22;51065;48.884;12.598;2022-09-09T12:01:27;19.90;99.90
64654;DHT22;51065;48.884;12.598;2022-09-09T12:04:17;20.10;99.90
64654;DHT22;51065;48.884;12.598;2022-09-09T12:09:46;20.50;99.90
64654;DHT22;51065;48.884;12.598;2022-09-09T12:19:40;20.80;99.90
64654;DHT22;51065;48.884;12.598;2022-09-09T12:22:17;20.80;99.90
64654;DHT22;51065;48.884;12.598;2022-09-09T12:28:19;21.30;99.90
64654;DHT22;51065;48.884;12.598;2022-09-09T12:31:10;21.70;98.40
64654;DHT22;51065;48.884;12.598;2022-09-09T12:33:40;21.40;96.90
64654;DHT22;51065;48.884;12.598;2022-09-09T12:36:17;21.30;98.10
64654;DHT22;51065;48.884;12.598;2022-09-09T12:38:45;20.70;97.60
64654;DHT22;51065;48.884;12.598;2022-09-09T12:41:23;20.60;98.80
64654;DHT22;51065;48.884;12.598;2022-09-09T12:43:50;21.00;99.50
64654;DHT22;51065;48.884;12.598;2022-09-09T12:46:43;21.30;97.70
64654;DHT22;51065;48.884;12.598;2022-09-09T12:49:30;22.00;96.70
64654;DHT22;51065;48.884;12.598;2022-09-09T12:52:02;22.10;95.50
64654;DHT22;51065;48.884;12.598;2022-09-09T12:54:28;22.00;93.80
64654;DHT22;51065;48.884;12.598;2022-09-09T12:56:54;22.30;94.00
64654;DHT22;51065;48.884;12.598;2022-09-09T12:59:25;22.70;92.90
64654;DHT22;51065;48.884;12.598;2022-09-09T13:01:58;22.60;91.80
64654;DHT22;51065;48.884;12.598;2022-09-09T13:04:23;23.10;86.70
64654;DHT22;51065;48.884;12.598;2022-09-09T13:06:49;23.20;85.90
64654;DHT22;51065;48.884;12.598;2022-09-09T13:09:15;22.80;84.50
64654;DHT22;51065;48.884;12.598;2022-09-09T13:11:47;22.60;86.60
64654;DHT22;51065;48.884;12.598;2022-09-09T13:14:19;22.90;84.30
64654;DHT22;51065;48.884;12.598;2022-09-09T13:16:56;23.10;81.40
64654;DHT22;51065;48.884;12.598;2022-09-09T13:19:22;23.00;79.00
64654;DHT22;51065;48.884;12.598;2022-09-09T13:21:51;23.30;83.10
64654;DHT22;51065;48.884;12.598;2022-09-09T13:24:33;23.40;79.40
64654;DHT22;51065;48.884;12.598;2022-09-09T13:27:00;23.10;82.10
64654;DHT22;51065;48.884;12.598;2022-09-09T13:29:30;23.10;82.20
64654;DHT22;51065;48.884;12.598;2022-09-09T13:32:16;23.20;80.70
64654;DHT22;51065;48.884;12.598;2022-09-09T13:34:52;23.30;82.40
64654;DHT22;51065;48.884;12.598;2022-09-09T13:37:35;23.00;79.80
64654;DHT22;51065;48.884;12.598;2022-09-09T13:40:03;23.20;81.10
64654;DHT22;51065;48.884;12.598;2022-09-09T13:42:37;23.50;79.30
64654;DHT22;51065;48.884;12.598;2022-09-09T13:45:04;23.70;79.50
64654;DHT22;51065;48.884;12.598;2022-09-09T13:47:35;23.90;78.40
64654;DHT22;51065;48.884;12.598;2022-09-09T13:50:30;24.80;76.70
64654;DHT22;51065;48.884;12.598;2022-09-09T13:52:57;24.50;71.30
64654;DHT22;51065;48.884;12.598;2022-09-09T13:55:25;24.20;72.70
64654;DHT22;51065;48.884;12.598;2022-09-09T13:57:56;23.70;73.00
64654;DHT22;51065;48.884;12.598;2022-09-09T14:00:23;23.90;73.70
64654;DHT22;51065;48.884;12.598;2022-09-09T14:02:52;23.70;73.10
64654;DHT22;51065;48.884;12.598;2022-09-09T14:05:20;23.70;71.60
64654;DHT22;51065;48.884;12.598;2022-09-09T14:07:47;23.80;69.90
64654;DHT22;51065;48.884;12.598;2022-09-09T14:10:14;23.60;71.10
64654;DHT22;51065;48.884;12.598;2022-09-09T14:12:40;23.70;71.10
64654;DHT22;51065;48.884;12.598;2022-09-09T14:15:08;24.00;73.60
64654;DHT22;51065;48.884;12.598;2022-09-09T14:17:35;24.00;70.30
64654;DHT22;51065;48.884;12.598;2022-09-09T14:20:04;24.10;68.60
64654;DHT22;51065;48.884;12.598;2022-09-09T14:22:35;24.10;67.30
64654;DHT22;51065;48.884;12.598;2022-09-09T14:25:01;24.40;68.50
64654;DHT22;51065;48.884;12.598;2022-09-09T14:27:27;24.50;68.50
64654;DHT22;51065;48.884;12.598;2022-09-09T14:29:52;24.80;65.60
64654;DHT22;51065;48.884;12.598;2022-09-09T14:32:18;24.30;65.80
64654;DHT22;51065;48.884;12.598;2022-09-09T14:34:44;24.30;68.00
64654;DHT22;51065;48.884;12.598;2022-09-09T14:37:10;24.40;67.30
64654;DHT22;51065;48.884;12.598;2022-09-09T14:39:35;23.50;67.40
64654;DHT22;51065;48.884;12.598;2022-09-09T14:42:01;23.30;70.00
64654;DHT22;51065;48.884;12.598;2022-09-09T14:44:28;23.00;70.40
64654;DHT22;51065;48.884;12.598;2022-09-09T14:46:53;22.80;70.40
64654;DHT22;51065;48.884;12.598;2022-09-09T14:49:20;23.00;71.60
64654;DHT22;51065;48.884;12.598;2022-09-09T14:51:45;23.20;72.10
64654;DHT22;51065;48.884;12.598;2022-09-09T14:54:11;22.90;72.90
64654;DHT22;51065;48.884;12.598;2022-09-09T14:56:37;22.50;75.20
64654;DHT22;51065;48.884;12.598;2022-09-09T14:59:03;22.50;75.60
64654;DHT22;51065;48.884;12.598;2022-09-09T15:01:30;23.00;76.30
64654;DHT22;51065;48.884;12.598;2022-09-09T15:03:58;23.00;73.90
64654;DHT22;51065;48.884;12.598;2022-09-09T15:06:26;22.20;75.10
64654;DHT22;51065;48.884;12.598;2022-09-09T15:08:53;21.80;77.90
64654;DHT22;51065;48.884;12.598;2022-09-09T15:11:20;21.50;79.10
64654;DHT22;51065;48.884;12.598;2022-09-09T15:13:46;21.40;80.70
64654;DHT22;51065;48.884;12.598;2022-09-09T15:16:17;21.40;81.80
64654;DHT22;51065;48.884;12.598;2022-09-09T15:18:44;21.30;82.00
64654;DHT22;51065;48.884;12.598;2022-09-09T15:21:15;21.30;82.00
64654;DHT22;51065;48.884;12.598;2022-09-09T15:23:41;21.10;83.70
64654;DHT22;51065;48.884;12.598;2022-09-09T15:26:07;20.90;84.20
64654;DHT22;51065;48.884;12.598;2022-09-09T15:28:35;20.90;85.10
64654;DHT22;51065;48.884;12.598;2022-09-09T15:31:11;20.90;86.30
64654;DHT22;51065;48.884;12.598;2022-09-09T15:33:39;21.00;87.20
64654;DHT22;51065;48.884;12.598;2022-09-09T15:36:17;21.00;87.40
64654;DHT22;51065;48.884;12.598;2022-09-09T15:38:42;20.90;87.40
64654;DHT22;51065;48.884;12.598;2022-09-09T15:41:09;20.80;87.00
64654;DHT22;51065;48.884;12.598;2022-09-09T15:43:35;20.70;87.00
64654;DHT22;51065;48.884;12.598;2022-09-09T15:48:43;20.70;88.80
64654;DHT22;51065;48.884;12.598;2022-09-09T15:51:09;20.60;88.60
64654;DHT22;51065;48.884;12.598;2022-09-09T15:53:39;20.50;88.60
64654;DHT22;51065;48.884;12.598;2022-09-09T15:56:08;20.40;90.30
64654;DHT22;51065;48.884;12.598;2022-09-09T15:58:35;20.30;91.20
64654;DHT22;51065;48.884;12.598;2022-09-09T16:01:05;20.10;91.00
64654;DHT22;51065;48.884;12.598;2022-09-09T16:03:36;19.90;92.10
64654;DHT22;51065;48.884;12.598;2022-09-09T16:06:03;19.80;92.00
64654;DHT22;51065;48.884;12.598;2022-09-09T16:08:40;19.70;93.30
64654;DHT22;51065;48.884;12.598;2022-09-09T16:11:08;19.60;93.60
64654;DHT22;51065;48.884;12.598;2022-09-09T16:13:38;19.50;94.30
64654;DHT22;51065;48.884;12.598;2022-09-09T16:16:05;19.40;94.80
64654;DHT22;51065;48.884;12.598;2022-09-09T16:18:41;19.30;95.40
64654;DHT22;51065;48.884;12.598;2022-09-09T16:21:11;19.10;95.70
64654;DHT22;51065;48.884;12.598;2022-09-09T16:23:38;19.00;96.10
64654;DHT22;51065;48.884;12.598;2022-09-09T16:26:04;18.90;96.60
64654;DHT22;51065;48.884;12.598;2022-09-09T16:28:30;18.80;96.60
64654;DHT22;51065;48.884;12.598;2022-09-09T16:30:56;18.70;97.20
64654;DHT22;51065;48.884;12.598;2022-09-09T16:33:23;18.70;97.90
64654;DHT22;51065;48.884;12.598;2022-09-09T16:35:49;18.60;98.00
64654;DHT22;51065;48.884;12.598;2022-09-09T16:38:15;18.60;98.40
64654;DHT22;51065;48.884;12.598;2022-09-09T16:40:40;18.60;98.30
64654;DHT22;51065;48.884;12.598;2022-09-09T16:43:07;18.50;99.00
64654;DHT22;51065;48.884;12.598;2022-09-09T16:45:34;18.50;99.60
64654;DHT22;51065;48.884;12.598;2022-09-09T16:48:06;18.40;99.80
64654;DHT22;51065;48.884;12.598;2022-09-09T16:50:31;18.40;99.90
64654;DHT22;51065;48.884;12.598;2022-09-09T16:52:57;18.40;99.90
64654;DHT22;51065;48.884;12.598;2022-09-09T16:55:23;18.40;99.90
64654;DHT22;51065;48.884;12.598;2022-09-09T16:57:49;18.40;99.90
64654;DHT22;51065;48.884;12.598;2022-09-09T17:00:15;18.40;99.90
64654;DHT22;51065;48.884;12.598;2022-09-09T17:02:44;18.40;99.90
64654;DHT22;51065;48.884;12.598;2022-09-09T17:05:10;18.40;99.90
64654;DHT22;51065;48.884;12.598;2022-09-09T17:07:36;18.30;99.90
64654;DHT22;51065;48.884;12.598;2022-09-09T17:10:02;18.20;99.90
64654;DHT22;51065;48.884;12.598;2022-09-09T17:12:27;18.20;99.90
64654;DHT22;51065;48.884;12.598;2022-09-09T17:14:53;18.20;99.90
64654;DHT22;51065;48.884;12.598;2022-09-09T17:17:20;18.20;99.90
64654;DHT22;51065;48.884;12.598;2022-09-09T17:19:46;18.10;99.90
64654;DHT22;51065;48.884;12.598;2022-09-09T17:22:12;18.10;99.90
64654;DHT22;51065;48.884;12.598;2022-09-09T17:24:38;17.90;99.90
64654;DHT22;51065;48.884;12.598;2022-09-09T17:27:04;17.70;99.90
64654;DHT22;51065;48.884;12.598;2022-09-09T17:29:29;17.60;99.90
64654;DHT22;51065;48.884;12.598;2022-09-09T17:31:55;17.60;99.90